sensor_id;sensor_type;location;lat;lon;timestamp;P1;durP1;ratioP1;P2;durP2;ratioP2
76117;SDS011;64851;50.232;20.364;2023-03-19T00:02:16;22.60;;;8.80;;
76117;SDS011;64851;50.232;20.364;2023-03-19T00:04:58;26.20;;;11.80;;
76117;SDS011;64851;50.232;20.364;2023-03-19T00:07:39;25.20;;;11.80;;
76117;SDS011;64851;50.232;20.364;2023-03-19T00:10:20;23.50;;;11.00;;
76117;SDS011;64851;50.232;20.364;2023-03-19T00:13:08;27.80;;;12.30;;
76117;SDS011;64851;50.232;20.364;2023-03-19T00:16:04;35.80;;;17.30;;
76117;SDS011;64851;50.232;20.364;2023-03-19T00:18:40;36.30;;;14.70;;
76117;SDS011;64851;50.232;20.364;2023-03-19T00:21:29;33.00;;;13.70;;
76117;SDS011;64851;50.232;20.364;2023-03-19T00:24:04;27.60;;;11.70;;
76117;SDS011;64851;50.232;20.364;2023-03-19T00:26:52;32.50;;;14.40;;
76117;SDS011;64851;50.232;20.364;2023-03-19T00:29:27;47.50;;;20.20;;
76117;SDS011;64851;50.232;20.364;2023-03-19T00:32:16;40.90;;;18.50;;
76117;SDS011;64851;50.232;20.364;2023-03-19T00:34:51;41.90;;;17.30;;
76117;SDS011;64851;50.232;20.364;2023-03-19T00:37:45;39.00;;;17.50;;
76117;SDS011;64851;50.232;20.364;2023-03-19T00:40:40;41.40;;;18.20;;
76117;SDS011;64851;50.232;20.364;2023-03-19T00:43:16;37.90;;;16.00;;
76117;SDS011;64851;50.232;20.364;2023-03-19T00:46:04;37.80;;;16.10;;
76117;SDS011;64851;50.232;20.364;2023-03-19T00:48:39;39.60;;;16.80;;
76117;SDS011;64851;50.232;20.364;2023-03-19T00:51:27;35.60;;;16.20;;
76117;SDS011;64851;50.232;20.364;2023-03-19T00:54:02;37.10;;;15.60;;
76117;SDS011;64851;50.232;20.364;2023-03-19T00:56:50;37.70;;;16.70;;
76117;SDS011;64851;50.232;20.364;2023-03-19T00:59:25;34.50;;;16.20;;
76117;SDS011;64851;50.232;20.364;2023-03-19T01:02:20;34.90;;;17.00;;
76117;SDS011;64851;50.232;20.364;2023-03-19T01:04:55;37.90;;;16.60;;
76117;SDS011;64851;50.232;20.364;2023-03-19T01:07:43;34.60;;;15.20;;
76117;SDS011;64851;50.232;20.364;2023-03-19T01:10:18;60.50;;;23.10;;
76117;SDS011;64851;50.232;20.364;2023-03-19T01:13:07;60.40;;;22.50;;
76117;SDS011;64851;50.232;20.364;2023-03-19T01:15:42;117.70;;;39.00;;
76117;SDS011;64851;50.232;20.364;2023-03-19T01:18:30;45.00;;;18.90;;
76117;SDS011;64851;50.232;20.364;2023-03-19T01:21:11;31.40;;;14.70;;
76117;SDS011;64851;50.232;20.364;2023-03-19T01:23:59;30.70;;;13.20;;
76117;SDS011;64851;50.232;20.364;2023-03-19T01:26:33;43.50;;;17.10;;
76117;SDS011;64851;50.232;20.364;2023-03-19T01:29:21;34.20;;;14.80;;
76117;SDS011;64851;50.232;20.364;2023-03-19T01:31:55;40.40;;;17.20;;
76117;SDS011;64851;50.232;20.364;2023-03-19T01:34:43;33.70;;;15.90;;
76117;SDS011;64851;50.232;20.364;2023-03-19T01:37:18;42.60;;;18.00;;
76117;SDS011;64851;50.232;20.364;2023-03-19T01:40:06;44.40;;;18.50;;
76117;SDS011;64851;50.232;20.364;2023-03-19T01:42:54;39.40;;;17.60;;
76117;SDS011;64851;50.232;20.364;2023-03-19T01:46:04;41.50;;;16.70;;
76117;SDS011;64851;50.232;20.364;2023-03-19T01:48:45;29.20;;;15.30;;
76117;SDS011;64851;50.232;20.364;2023-03-19T01:51:38;41.30;;;17.70;;
76117;SDS011;64851;50.232;20.364;2023-03-19T01:54:14;33.80;;;14.90;;
76117;SDS011;64851;50.232;20.364;2023-03-19T01:57:12;43.50;;;17.00;;
76117;SDS011;64851;50.232;20.364;2023-03-19T01:59:49;32.70;;;13.80;;
76117;SDS011;64851;50.232;20.364;2023-03-19T02:02:39;38.90;;;14.70;;
76117;SDS011;64851;50.232;20.364;2023-03-19T02:05:15;34.60;;;14.50;;
76117;SDS011;64851;50.232;20.364;2023-03-19T02:08:08;36.10;;;14.20;;
76117;SDS011;64851;50.232;20.364;2023-03-19T02:10:51;31.50;;;13.30;;
76117;SDS011;64851;50.232;20.364;2023-03-19T02:13:41;32.40;;;14.50;;
76117;SDS011;64851;50.232;20.364;2023-03-19T02:16:17;31.40;;;14.60;;
76117;SDS011;64851;50.232;20.364;2023-03-19T02:19:06;33.50;;;14.30;;
76117;SDS011;64851;50.232;20.364;2023-03-19T02:21:42;38.00;;;14.80;;
76117;SDS011;64851;50.232;20.364;2023-03-19T02:24:40;36.70;;;15.50;;
76117;SDS011;64851;50.232;20.364;2023-03-19T02:27:18;25.80;;;10.00;;
76117;SDS011;64851;50.232;20.364;2023-03-19T02:30:19;39.20;;;16.50;;
76117;SDS011;64851;50.232;20.364;2023-03-19T02:33:02;44.40;;;18.70;;
76117;SDS011;64851;50.232;20.364;2023-03-19T02:35:47;43.10;;;17.50;;
76117;SDS011;64851;50.232;20.364;2023-03-19T02:38:31;37.70;;;16.30;;
76117;SDS011;64851;50.232;20.364;2023-03-19T02:41:14;45.20;;;17.80;;
76117;SDS011;64851;50.232;20.364;2023-03-19T02:43:55;39.30;;;17.30;;
76117;SDS011;64851;50.232;20.364;2023-03-19T02:46:37;37.50;;;16.30;;
76117;SDS011;64851;50.232;20.364;2023-03-19T02:49:18;32.00;;;14.20;;
76117;SDS011;64851;50.232;20.364;2023-03-19T02:52:00;37.50;;;16.40;;
76117;SDS011;64851;50.232;20.364;2023-03-19T02:54:41;29.70;;;13.30;;
76117;SDS011;64851;50.232;20.364;2023-03-19T02:57:22;37.40;;;17.80;;
76117;SDS011;64851;50.232;20.364;2023-03-19T03:00:04;39.90;;;18.20;;
76117;SDS011;64851;50.232;20.364;2023-03-19T03:02:52;31.40;;;16.50;;
76117;SDS011;64851;50.232;20.364;2023-03-19T03:05:28;35.90;;;16.30;;
76117;SDS011;64851;50.232;20.364;2023-03-19T03:08:16;45.60;;;20.40;;
76117;SDS011;64851;50.232;20.364;2023-03-19T03:10:52;48.00;;;19.60;;
76117;SDS011;64851;50.232;20.364;2023-03-19T03:13:39;47.40;;;19.70;;
76117;SDS011;64851;50.232;20.364;2023-03-19T03:16:13;52.90;;;22.70;;
76117;SDS011;64851;50.232;20.364;2023-03-19T03:19:02;45.10;;;22.10;;
76117;SDS011;64851;50.232;20.364;2023-03-19T03:21:45;42.10;;;20.70;;
76117;SDS011;64851;50.232;20.364;2023-03-19T03:24:26;48.00;;;21.70;;
76117;SDS011;64851;50.232;20.364;2023-03-19T03:27:08;48.20;;;22.00;;
76117;SDS011;64851;50.232;20.364;2023-03-19T03:29:49;54.10;;;23.30;;
76117;SDS011;64851;50.232;20.364;2023-03-19T03:32:30;49.90;;;21.20;;
76117;SDS011;64851;50.232;20.364;2023-03-19T03:35:18;44.70;;;19.80;;
76117;SDS011;64851;50.232;20.364;2023-03-19T03:38:01;39.00;;;18.30;;
76117;SDS011;64851;50.232;20.364;2023-03-19T03:40:49;36.60;;;16.30;;
76117;SDS011;64851;50.232;20.364;2023-03-19T03:43:26;33.50;;;15.50;;
76117;SDS011;64851;50.232;20.364;2023-03-19T03:46:13;32.00;;;14.80;;
76117;SDS011;64851;50.232;20.364;2023-03-19T03:48:54;21.70;;;9.00;;
76117;SDS011;64851;50.232;20.364;2023-03-19T03:51:42;32.30;;;14.10;;
76117;SDS011;64851;50.232;20.364;2023-03-19T03:54:17;29.20;;;13.00;;
76117;SDS011;64851;50.232;20.364;2023-03-19T03:57:12;31.10;;;12.90;;
76117;SDS011;64851;50.232;20.364;2023-03-19T04:00:07;30.40;;;13.90;;
76117;SDS011;64851;50.232;20.364;2023-03-19T04:02:50;32.20;;;15.20;;
76117;SDS011;64851;50.232;20.364;2023-03-19T04:05:38;33.20;;;14.10;;
76117;SDS011;64851;50.232;20.364;2023-03-19T04:08:19;30.80;;;12.90;;
76117;SDS011;64851;50.232;20.364;2023-03-19T04:11:07;26.70;;;12.10;;
76117;SDS011;64851;50.232;20.364;2023-03-19T04:13:42;31.40;;;13.40;;
76117;SDS011;64851;50.232;20.364;2023-03-19T04:16:30;26.50;;;13.40;;
76117;SDS011;64851;50.232;20.364;2023-03-19T04:19:11;28.70;;;12.50;;
76117;SDS011;64851;50.232;20.364;2023-03-19T04:21:53;25.00;;;12.00;;
76117;SDS011;64851;50.232;20.364;2023-03-19T04:24:34;28.30;;;11.90;;
76117;SDS011;64851;50.232;20.364;2023-03-19T04:27:22;25.30;;;12.10;;
76117;SDS011;64851;50.232;20.364;2023-03-19T04:29:56;27.20;;;12.40;;
76117;SDS011;64851;50.232;20.364;2023-03-19T04:32:44;26.90;;;13.30;;
76117;SDS011;64851;50.232;20.364;2023-03-19T04:35:19;27.70;;;10.90;;
76117;SDS011;64851;50.232;20.364;2023-03-19T04:38:07;20.40;;;9.50;;
76117;SDS011;64851;50.232;20.364;2023-03-19T04:40:41;25.50;;;10.70;;
76117;SDS011;64851;50.232;20.364;2023-03-19T04:43:29;24.50;;;11.40;;
76117;SDS011;64851;50.232;20.364;2023-03-19T04:46:10;25.50;;;11.00;;
76117;SDS011;64851;50.232;20.364;2023-03-19T04:48:51;29.50;;;11.30;;
76117;SDS011;64851;50.232;20.364;2023-03-19T04:51:32;32.50;;;12.80;;
76117;SDS011;64851;50.232;20.364;2023-03-19T04:54:20;27.60;;;12.10;;
76117;SDS011;64851;50.232;20.364;2023-03-19T04:56:54;32.60;;;13.50;;
76117;SDS011;64851;50.232;20.364;2023-03-19T04:59:49;28.30;;;13.30;;
76117;SDS011;64851;50.232;20.364;2023-03-19T05:02:25;34.20;;;14.10;;
76117;SDS011;64851;50.232;20.364;2023-03-19T05:05:20;24.50;;;13.20;;
76117;SDS011;64851;50.232;20.364;2023-03-19T05:07:55;34.60;;;15.40;;
76117;SDS011;64851;50.232;20.364;2023-03-19T05:10:43;30.70;;;14.50;;
76117;SDS011;64851;50.232;20.364;2023-03-19T05:13:18;33.00;;;15.10;;
76117;SDS011;64851;50.232;20.364;2023-03-19T05:16:06;26.70;;;11.60;;
76117;SDS011;64851;50.232;20.364;2023-03-19T05:18:41;26.10;;;12.10;;
76117;SDS011;64851;50.232;20.364;2023-03-19T05:21:29;23.90;;;10.70;;
76117;SDS011;64851;50.232;20.364;2023-03-19T05:24:04;19.20;;;8.50;;
76117;SDS011;64851;50.232;20.364;2023-03-19T05:26:52;22.00;;;9.40;;
76117;SDS011;64851;50.232;20.364;2023-03-19T05:29:27;18.00;;;8.20;;
76117;SDS011;64851;50.232;20.364;2023-03-19T05:32:17;24.30;;;9.90;;
76117;SDS011;64851;50.232;20.364;2023-03-19T05:34:52;22.80;;;10.40;;
76117;SDS011;64851;50.232;20.364;2023-03-19T05:37:47;26.20;;;10.60;;
76117;SDS011;64851;50.232;20.364;2023-03-19T05:40:42;22.30;;;10.10;;
76117;SDS011;64851;50.232;20.364;2023-03-19T05:43:17;23.50;;;10.80;;
76117;SDS011;64851;50.232;20.364;2023-03-19T05:46:05;27.60;;;12.40;;
76117;SDS011;64851;50.232;20.364;2023-03-19T05:48:40;24.10;;;12.70;;
76117;SDS011;64851;50.232;20.364;2023-03-19T05:51:28;27.80;;;14.50;;
76117;SDS011;64851;50.232;20.364;2023-03-19T05:54:03;35.80;;;17.50;;
76117;SDS011;64851;50.232;20.364;2023-03-19T05:56:51;35.00;;;17.00;;
76117;SDS011;64851;50.232;20.364;2023-03-19T05:59:26;39.90;;;18.00;;
76117;SDS011;64851;50.232;20.364;2023-03-19T06:02:14;36.40;;;18.50;;
76117;SDS011;64851;50.232;20.364;2023-03-19T06:04:49;36.50;;;17.90;;
76117;SDS011;64851;50.232;20.364;2023-03-19T06:07:37;35.90;;;17.80;;
76117;SDS011;64851;50.232;20.364;2023-03-19T06:10:12;30.80;;;14.60;;
76117;SDS011;64851;50.232;20.364;2023-03-19T06:13:00;41.90;;;18.50;;
76117;SDS011;64851;50.232;20.364;2023-03-19T06:15:55;40.40;;;20.00;;
76117;SDS011;64851;50.232;20.364;2023-03-19T06:18:31;36.00;;;17.70;;
76117;SDS011;64851;50.232;20.364;2023-03-19T06:21:18;32.90;;;16.70;;
76117;SDS011;64851;50.232;20.364;2023-03-19T06:23:53;29.90;;;14.90;;
76117;SDS011;64851;50.232;20.364;2023-03-19T06:26:42;19.30;;;10.40;;
76117;SDS011;64851;50.232;20.364;2023-03-19T06:29:17;17.80;;;9.30;;
76117;SDS011;64851;50.232;20.364;2023-03-19T06:32:05;26.60;;;12.70;;
76117;SDS011;64851;50.232;20.364;2023-03-19T06:34:41;32.00;;;14.20;;
76117;SDS011;64851;50.232;20.364;2023-03-19T06:37:29;28.40;;;14.80;;
76117;SDS011;64851;50.232;20.364;2023-03-19T06:40:04;26.10;;;13.20;;
76117;SDS011;64851;50.232;20.364;2023-03-19T06:42:59;26.50;;;12.30;;
76117;SDS011;64851;50.232;20.364;2023-03-19T06:45:54;22.10;;;11.80;;
76117;SDS011;64851;50.232;20.364;2023-03-19T06:48:29;25.20;;;10.70;;
76117;SDS011;64851;50.232;20.364;2023-03-19T06:51:17;24.30;;;12.70;;
76117;SDS011;64851;50.232;20.364;2023-03-19T06:53:52;26.30;;;11.90;;
76117;SDS011;64851;50.232;20.364;2023-03-19T06:56:47;19.70;;;10.20;;
76117;SDS011;64851;50.232;20.364;2023-03-19T06:59:42;20.00;;;9.80;;
76117;SDS011;64851;50.232;20.364;2023-03-19T07:02:23;18.90;;;10.30;;
76117;SDS011;64851;50.232;20.364;2023-03-19T07:05:11;24.50;;;11.20;;
76117;SDS011;64851;50.232;20.364;2023-03-19T07:07:46;23.90;;;11.00;;
76117;SDS011;64851;50.232;20.364;2023-03-19T07:10:33;15.90;;;8.30;;
76117;SDS011;64851;50.232;20.364;2023-03-19T07:13:08;18.60;;;9.80;;
76117;SDS011;64851;50.232;20.364;2023-03-19T07:16:03;18.20;;;10.50;;
76117;SDS011;64851;50.232;20.364;2023-03-19T07:18:38;21.20;;;10.00;;
76117;SDS011;64851;50.232;20.364;2023-03-19T07:21:33;20.80;;;10.30;;
76117;SDS011;64851;50.232;20.364;2023-03-19T07:24:08;19.80;;;10.60;;
76117;SDS011;64851;50.232;20.364;2023-03-19T07:26:56;17.30;;;8.60;;
76117;SDS011;64851;50.232;20.364;2023-03-19T07:29:32;19.80;;;10.50;;
76117;SDS011;64851;50.232;20.364;2023-03-19T07:32:20;20.20;;;10.40;;
76117;SDS011;64851;50.232;20.364;2023-03-19T07:34:56;22.00;;;11.20;;
76117;SDS011;64851;50.232;20.364;2023-03-19T07:37:44;17.80;;;10.10;;
76117;SDS011;64851;50.232;20.364;2023-03-19T07:40:19;21.00;;;10.00;;
76117;SDS011;64851;50.232;20.364;2023-03-19T07:43:14;19.30;;;9.70;;
76117;SDS011;64851;50.232;20.364;2023-03-19T07:46:09;20.30;;;10.10;;
76117;SDS011;64851;50.232;20.364;2023-03-19T07:48:45;26.60;;;14.90;;
76117;SDS011;64851;50.232;20.364;2023-03-19T07:51:40;23.10;;;12.70;;
76117;SDS011;64851;50.232;20.364;2023-03-19T07:54:35;18.00;;;9.90;;
76117;SDS011;64851;50.232;20.364;2023-03-19T07:57:10;21.90;;;13.30;;
76117;SDS011;64851;50.232;20.364;2023-03-19T08:00:05;37.40;;;17.50;;
76117;SDS011;64851;50.232;20.364;2023-03-19T08:02:47;30.20;;;14.80;;
76117;SDS011;64851;50.232;20.364;2023-03-19T08:05:28;27.70;;;14.60;;
76117;SDS011;64851;50.232;20.364;2023-03-19T08:08:09;27.30;;;13.70;;
76117;SDS011;64851;50.232;20.364;2023-03-19T08:10:57;20.50;;;12.10;;
76117;SDS011;64851;50.232;20.364;2023-03-19T08:13:31;20.90;;;11.20;;
76117;SDS011;64851;50.232;20.364;2023-03-19T08:16:26;18.20;;;10.50;;
76117;SDS011;64851;50.232;20.364;2023-03-19T08:19:21;20.00;;;11.60;;
76117;SDS011;64851;50.232;20.364;2023-03-19T08:21:56;17.80;;;9.90;;
76117;SDS011;64851;50.232;20.364;2023-03-19T08:24:51;16.60;;;9.90;;
76117;SDS011;64851;50.232;20.364;2023-03-19T08:27:47;17.80;;;10.00;;
76117;SDS011;64851;50.232;20.364;2023-03-19T08:30:22;15.70;;;9.40;;
76117;SDS011;64851;50.232;20.364;2023-03-19T08:33:10;17.60;;;10.00;;
76117;SDS011;64851;50.232;20.364;2023-03-19T08:35:45;16.90;;;9.10;;
76117;SDS011;64851;50.232;20.364;2023-03-19T08:38:40;15.20;;;9.20;;
76117;SDS011;64851;50.232;20.364;2023-03-19T08:41:41;16.00;;;8.50;;
76117;SDS011;64851;50.232;20.364;2023-03-19T08:44:17;14.90;;;8.50;;
76117;SDS011;64851;50.232;20.364;2023-03-19T08:47:05;13.60;;;8.50;;
76117;SDS011;64851;50.232;20.364;2023-03-19T08:49:40;16.70;;;8.80;;
76117;SDS011;64851;50.232;20.364;2023-03-19T08:52:35;14.40;;;8.80;;
76117;SDS011;64851;50.232;20.364;2023-03-19T08:55:30;14.20;;;7.80;;
76117;SDS011;64851;50.232;20.364;2023-03-19T08:58:06;14.70;;;8.50;;
76117;SDS011;64851;50.232;20.364;2023-03-19T09:01:07;15.70;;;9.80;;
76117;SDS011;64851;50.232;20.364;2023-03-19T09:03:50;14.60;;;9.10;;
76117;SDS011;64851;50.232;20.364;2023-03-19T09:06:38;15.80;;;10.10;;
76117;SDS011;64851;50.232;20.364;2023-03-19T09:09:13;14.80;;;8.60;;
76117;SDS011;64851;50.232;20.364;2023-03-19T09:12:09;20.50;;;11.40;;
76117;SDS011;64851;50.232;20.364;2023-03-19T09:15:06;27.30;;;15.90;;
76117;SDS011;64851;50.232;20.364;2023-03-19T09:18:01;12.90;;;8.20;;
76117;SDS011;64851;50.232;20.364;2023-03-19T09:20:56;15.70;;;8.40;;
76117;SDS011;64851;50.232;20.364;2023-03-19T09:23:31;16.80;;;9.70;;
76117;SDS011;64851;50.232;20.364;2023-03-19T09:26:20;15.80;;;9.30;;
76117;SDS011;64851;50.232;20.364;2023-03-19T09:28:55;12.50;;;8.30;;
76117;SDS011;64851;50.232;20.364;2023-03-19T09:31:48;14.30;;;8.50;;
76117;SDS011;64851;50.232;20.364;2023-03-19T09:34:23;12.60;;;7.50;;
76117;SDS011;64851;50.232;20.364;2023-03-19T09:37:18;11.80;;;7.00;;
76117;SDS011;64851;50.232;20.364;2023-03-19T09:39:53;14.10;;;8.20;;
76117;SDS011;64851;50.232;20.364;2023-03-19T09:42:54;19.00;;;12.20;;
76117;SDS011;64851;50.232;20.364;2023-03-19T09:46:13;11.10;;;6.80;;
76117;SDS011;64851;50.232;20.364;2023-03-19T09:55:47;14.70;;;8.30;;
76117;SDS011;64851;50.232;20.364;2023-03-19T09:58:04;12.30;;;6.90;;
76117;SDS011;64851;50.232;20.364;2023-03-19T10:01:10;10.60;;;6.70;;
76117;SDS011;64851;50.232;20.364;2023-03-19T10:16:37;11.80;;;8.80;;
76117;SDS011;64851;50.232;20.364;2023-03-19T10:19:40;8.10;;;5.00;;
76117;SDS011;64851;50.232;20.364;2023-03-19T10:22:20;11.10;;;5.70;;
76117;SDS011;64851;50.232;20.364;2023-03-19T10:25:12;9.60;;;5.30;;
76117;SDS011;64851;50.232;20.364;2023-03-19T10:27:55;16.10;;;9.30;;
76117;SDS011;64851;50.232;20.364;2023-03-19T10:30:54;9.50;;;6.10;;
76117;SDS011;64851;50.232;20.364;2023-03-19T10:33:57;7.00;;;4.90;;
76117;SDS011;64851;50.232;20.364;2023-03-19T10:37:05;8.10;;;4.80;;
76117;SDS011;64851;50.232;20.364;2023-03-19T10:40:11;6.10;;;4.10;;
76117;SDS011;64851;50.232;20.364;2023-03-19T10:43:11;8.80;;;4.70;;
76117;SDS011;64851;50.232;20.364;2023-03-19T10:46:04;7.50;;;4.60;;
76117;SDS011;64851;50.232;20.364;2023-03-19T10:48:46;7.60;;;5.30;;
76117;SDS011;64851;50.232;20.364;2023-03-19T10:51:34;8.70;;;7.60;;
76117;SDS011;64851;50.232;20.364;2023-03-19T10:54:23;9.80;;;6.10;;
76117;SDS011;64851;50.232;20.364;2023-03-19T10:57:17;9.00;;;5.00;;
76117;SDS011;64851;50.232;20.364;2023-03-19T11:00:17;8.30;;;6.40;;
76117;SDS011;64851;50.232;20.364;2023-03-19T11:03:25;8.80;;;6.30;;
76117;SDS011;64851;50.232;20.364;2023-03-19T11:06:04;13.40;;;12.00;;
76117;SDS011;64851;50.232;20.364;2023-03-19T11:11:47;9.60;;;5.80;;
76117;SDS011;64851;50.232;20.364;2023-03-19T11:14:40;6.90;;;4.90;;
76117;SDS011;64851;50.232;20.364;2023-03-19T11:17:46;8.10;;;5.30;;
76117;SDS011;64851;50.232;20.364;2023-03-19T11:20:36;6.80;;;4.30;;
76117;SDS011;64851;50.232;20.364;2023-03-19T11:23:14;7.80;;;5.40;;
76117;SDS011;64851;50.232;20.364;2023-03-19T11:26:02;8.30;;;5.80;;
76117;SDS011;64851;50.232;20.364;2023-03-19T11:28:41;7.70;;;5.40;;
76117;SDS011;64851;50.232;20.364;2023-03-19T11:31:39;7.10;;;4.80;;
76117;SDS011;64851;50.232;20.364;2023-03-19T11:40:34;8.30;;;7.00;;
76117;SDS011;64851;50.232;20.364;2023-03-19T11:43:33;6.10;;;4.50;;
76117;SDS011;64851;50.232;20.364;2023-03-19T11:46:35;5.70;;;3.90;;
76117;SDS011;64851;50.232;20.364;2023-03-19T12:23:23;5.60;;;3.20;;
76117;SDS011;64851;50.232;20.364;2023-03-19T12:27:02;5.80;;;3.90;;
76117;SDS011;64851;50.232;20.364;2023-03-19T12:30:03;7.60;;;3.90;;
76117;SDS011;64851;50.232;20.364;2023-03-19T12:33:47;10.30;;;9.30;;
76117;SDS011;64851;50.232;20.364;2023-03-19T12:36:10;6.50;;;4.60;;
76117;SDS011;64851;50.232;20.364;2023-03-19T12:38:48;6.60;;;5.10;;
76117;SDS011;64851;50.232;20.364;2023-03-19T12:41:47;8.10;;;4.90;;
76117;SDS011;64851;50.232;20.364;2023-03-19T12:44:43;7.80;;;5.00;;
76117;SDS011;64851;50.232;20.364;2023-03-19T12:47:25;5.10;;;3.30;;
76117;SDS011;64851;50.232;20.364;2023-03-19T12:50:25;9.80;;;7.90;;
76117;SDS011;64851;50.232;20.364;2023-03-19T12:53:00;10.30;;;9.30;;
76117;SDS011;64851;50.232;20.364;2023-03-19T12:55:52;5.50;;;4.20;;
76117;SDS011;64851;50.232;20.364;2023-03-19T13:01:25;5.80;;;4.20;;
76117;SDS011;64851;50.232;20.364;2023-03-19T13:04:07;6.80;;;4.40;;
76117;SDS011;64851;50.232;20.364;2023-03-19T13:07:05;7.30;;;6.60;;
76117;SDS011;64851;50.232;20.364;2023-03-19T13:09:44;8.20;;;5.50;;
76117;SDS011;64851;50.232;20.364;2023-03-19T13:12:35;6.90;;;4.80;;
76117;SDS011;64851;50.232;20.364;2023-03-19T13:21:32;9.30;;;7.10;;
76117;SDS011;64851;50.232;20.364;2023-03-19T13:27:10;8.30;;;5.90;;
76117;SDS011;64851;50.232;20.364;2023-03-19T13:29:58;10.70;;;8.90;;
76117;SDS011;64851;50.232;20.364;2023-03-19T13:32:59;6.40;;;5.80;;
76117;SDS011;64851;50.232;20.364;2023-03-19T13:35:46;4.80;;;3.70;;
76117;SDS011;64851;50.232;20.364;2023-03-19T13:44:38;8.10;;;4.80;;
76117;SDS011;64851;50.232;20.364;2023-03-19T13:52:53;5.30;;;4.30;;
76117;SDS011;64851;50.232;20.364;2023-03-19T13:56:04;5.70;;;4.40;;
76117;SDS011;64851;50.232;20.364;2023-03-19T13:59:24;7.10;;;4.90;;
76117;SDS011;64851;50.232;20.364;2023-03-19T14:05:00;8.50;;;4.50;;
76117;SDS011;64851;50.232;20.364;2023-03-19T14:07:57;5.70;;;4.30;;
76117;SDS011;64851;50.232;20.364;2023-03-19T14:10:54;5.70;;;4.20;;
76117;SDS011;64851;50.232;20.364;2023-03-19T14:13:31;5.70;;;4.10;;
76117;SDS011;64851;50.232;20.364;2023-03-19T14:16:31;6.10;;;3.90;;
76117;SDS011;64851;50.232;20.364;2023-03-19T14:19:27;5.60;;;4.30;;
76117;SDS011;64851;50.232;20.364;2023-03-19T14:22:08;7.80;;;4.70;;
76117;SDS011;64851;50.232;20.364;2023-03-19T14:25:19;14.30;;;7.90;;
76117;SDS011;64851;50.232;20.364;2023-03-19T14:28:15;15.30;;;8.10;;
76117;SDS011;64851;50.232;20.364;2023-03-19T14:30:52;11.70;;;6.60;;
76117;SDS011;64851;50.232;20.364;2023-03-19T14:33:44;9.60;;;5.50;;
76117;SDS011;64851;50.232;20.364;2023-03-19T14:36:23;6.50;;;4.80;;
76117;SDS011;64851;50.232;20.364;2023-03-19T14:39:19;43.50;;;31.90;;
76117;SDS011;64851;50.232;20.364;2023-03-19T14:42:06;8.00;;;4.90;;
76117;SDS011;64851;50.232;20.364;2023-03-19T14:51:25;6.80;;;4.20;;
76117;SDS011;64851;50.232;20.364;2023-03-19T14:57:19;10.20;;;6.70;;
76117;SDS011;64851;50.232;20.364;2023-03-19T15:00:03;6.60;;;4.30;;
76117;SDS011;64851;50.232;20.364;2023-03-19T15:02:52;6.40;;;4.50;;
76117;SDS011;64851;50.232;20.364;2023-03-19T15:05:33;10.00;;;6.60;;
76117;SDS011;64851;50.232;20.364;2023-03-19T15:08:16;6.40;;;4.40;;
76117;SDS011;64851;50.232;20.364;2023-03-19T15:14:08;13.60;;;9.10;;
76117;SDS011;64851;50.232;20.364;2023-03-19T15:19:59;8.60;;;5.20;;
76117;SDS011;64851;50.232;20.364;2023-03-19T15:22:41;7.60;;;4.60;;
76117;SDS011;64851;50.232;20.364;2023-03-19T15:25:23;8.00;;;6.30;;
76117;SDS011;64851;50.232;20.364;2023-03-19T15:30:54;7.50;;;4.40;;
76117;SDS011;64851;50.232;20.364;2023-03-19T15:34:15;8.50;;;4.90;;
76117;SDS011;64851;50.232;20.364;2023-03-19T15:37:08;6.20;;;4.00;;
76117;SDS011;64851;50.232;20.364;2023-03-19T15:39:52;7.90;;;4.90;;
76117;SDS011;64851;50.232;20.364;2023-03-19T15:42:42;8.10;;;5.10;;
76117;SDS011;64851;50.232;20.364;2023-03-19T15:45:21;6.60;;;3.90;;
76117;SDS011;64851;50.232;20.364;2023-03-19T15:50:50;7.50;;;4.60;;
76117;SDS011;64851;50.232;20.364;2023-03-19T15:53:40;7.10;;;4.70;;
76117;SDS011;64851;50.232;20.364;2023-03-19T15:56:16;7.60;;;4.40;;
76117;SDS011;64851;50.232;20.364;2023-03-19T15:59:05;7.90;;;4.50;;
76117;SDS011;64851;50.232;20.364;2023-03-19T16:01:40;9.80;;;5.90;;
76117;SDS011;64851;50.232;20.364;2023-03-19T16:04:29;11.30;;;7.00;;
76117;SDS011;64851;50.232;20.364;2023-03-19T16:19:33;9.60;;;5.00;;
76117;SDS011;64851;50.232;20.364;2023-03-19T16:22:12;11.50;;;5.10;;
76117;SDS011;64851;50.232;20.364;2023-03-19T16:25:02;7.60;;;5.00;;
76117;SDS011;64851;50.232;20.364;2023-03-19T16:27:41;11.50;;;5.90;;
76117;SDS011;64851;50.232;20.364;2023-03-19T16:30:40;11.50;;;6.20;;
76117;SDS011;64851;50.232;20.364;2023-03-19T16:33:19;11.90;;;6.70;;
76117;SDS011;64851;50.232;20.364;2023-03-19T16:36:10;10.70;;;5.30;;
76117;SDS011;64851;50.232;20.364;2023-03-19T16:38:56;10.20;;;5.00;;
76117;SDS011;64851;50.232;20.364;2023-03-19T16:41:45;8.80;;;5.20;;
76117;SDS011;64851;50.232;20.364;2023-03-19T16:44:54;8.60;;;4.90;;
76117;SDS011;64851;50.232;20.364;2023-03-19T16:47:50;11.50;;;4.60;;
76117;SDS011;64851;50.232;20.364;2023-03-19T16:50:49;8.20;;;4.50;;
76117;SDS011;64851;50.232;20.364;2023-03-19T16:53:37;9.60;;;4.80;;
76117;SDS011;64851;50.232;20.364;2023-03-19T16:56:12;12.00;;;5.60;;
76117;SDS011;64851;50.232;20.364;2023-03-19T16:59:00;9.70;;;5.40;;
76117;SDS011;64851;50.232;20.364;2023-03-19T17:01:36;10.00;;;5.10;;
76117;SDS011;64851;50.232;20.364;2023-03-19T17:04:24;13.20;;;8.50;;
76117;SDS011;64851;50.232;20.364;2023-03-19T17:07:06;11.90;;;6.00;;
76117;SDS011;64851;50.232;20.364;2023-03-19T17:09:54;13.20;;;7.20;;
76117;SDS011;64851;50.232;20.364;2023-03-19T17:12:36;11.90;;;6.90;;
76117;SDS011;64851;50.232;20.364;2023-03-19T17:18:15;10.80;;;5.60;;
76117;SDS011;64851;50.232;20.364;2023-03-19T17:23:43;11.00;;;6.10;;
76117;SDS011;64851;50.232;20.364;2023-03-19T17:26:26;10.70;;;5.90;;
76117;SDS011;64851;50.232;20.364;2023-03-19T17:29:08;9.90;;;5.70;;
76117;SDS011;64851;50.232;20.364;2023-03-19T17:31:49;8.20;;;4.10;;
76117;SDS011;64851;50.232;20.364;2023-03-19T17:34:35;9.20;;;4.50;;
76117;SDS011;64851;50.232;20.364;2023-03-19T17:37:23;9.40;;;4.70;;
76117;SDS011;64851;50.232;20.364;2023-03-19T17:39:58;13.70;;;5.90;;
76117;SDS011;64851;50.232;20.364;2023-03-19T17:42:48;18.00;;;7.50;;
76117;SDS011;64851;50.232;20.364;2023-03-19T17:45:25;19.10;;;8.60;;
76117;SDS011;64851;50.232;20.364;2023-03-19T17:48:21;15.50;;;7.40;;
76117;SDS011;64851;50.232;20.364;2023-03-19T17:51:04;19.10;;;7.10;;
76117;SDS011;64851;50.232;20.364;2023-03-19T17:54:00;17.20;;;6.90;;
76117;SDS011;64851;50.232;20.364;2023-03-19T17:56:35;14.30;;;8.30;;
76117;SDS011;64851;50.232;20.364;2023-03-19T17:59:24;12.10;;;5.30;;
76117;SDS011;64851;50.232;20.364;2023-03-19T18:02:01;15.10;;;6.00;;
76117;SDS011;64851;50.232;20.364;2023-03-19T18:04:49;16.40;;;6.60;;
76117;SDS011;64851;50.232;20.364;2023-03-19T18:07:30;17.30;;;8.70;;
76117;SDS011;64851;50.232;20.364;2023-03-19T18:12:58;30.50;;;11.00;;
76117;SDS011;64851;50.232;20.364;2023-03-19T18:15:41;34.50;;;13.60;;
76117;SDS011;64851;50.232;20.364;2023-03-19T18:18:23;28.70;;;12.80;;
76117;SDS011;64851;50.232;20.364;2023-03-19T18:21:07;32.50;;;14.30;;